sensor_id;sensor_type;location;lat;lon;timestamp;P1;durP1;ratioP1;P2;durP2;ratioP2
50976;SDS011;36992;48.200;12.418;2022-10-31T00:01:01;5.90;;;1.23;;
50976;SDS011;36992;48.200;12.418;2022-10-31T00:03:36;5.10;;;2.25;;
50976;SDS011;36992;48.200;12.418;2022-10-31T00:06:02;6.13;;;1.85;;
50976;SDS011;36992;48.200;12.418;2022-10-31T00:08:29;5.20;;;1.75;;
50976;SDS011;36992;48.200;12.418;2022-10-31T00:10:57;4.68;;;1.40;;
50976;SDS011;36992;48.200;12.418;2022-10-31T00:13:23;5.22;;;1.90;;
50976;SDS011;36992;48.200;12.418;2022-10-31T00:15:50;4.88;;;1.67;;
50976;SDS011;36992;48.200;12.418;2022-10-31T00:18:16;5.88;;;1.73;;
50976;SDS011;36992;48.200;12.418;2022-10-31T00:20:43;4.53;;;2.08;;
50976;SDS011;36992;48.200;12.418;2022-10-31T00:23:10;4.68;;;1.48;;
50976;SDS011;36992;48.200;12.418;2022-10-31T00:25:37;8.23;;;1.55;;
50976;SDS011;36992;48.200;12.418;2022-10-31T00:28:07;7.03;;;2.03;;
50976;SDS011;36992;48.200;12.418;2022-10-31T00:30:37;3.47;;;1.45;;
50976;SDS011;36992;48.200;12.418;2022-10-31T00:33:03;5.47;;;1.95;;
50976;SDS011;36992;48.200;12.418;2022-10-31T00:35:30;4.93;;;1.60;;
50976;SDS011;36992;48.200;12.418;2022-10-31T00:37:57;4.65;;;2.08;;
50976;SDS011;36992;48.200;12.418;2022-10-31T00:40:23;7.88;;;2.95;;
50976;SDS011;36992;48.200;12.418;2022-10-31T00:42:50;7.93;;;2.65;;
50976;SDS011;36992;48.200;12.418;2022-10-31T00:45:18;5.55;;;2.20;;
50976;SDS011;36992;48.200;12.418;2022-10-31T00:47:45;5.95;;;2.10;;
50976;SDS011;36992;48.200;12.418;2022-10-31T00:50:11;5.22;;;1.95;;
50976;SDS011;36992;48.200;12.418;2022-10-31T00:52:38;7.20;;;3.15;;
50976;SDS011;36992;48.200;12.418;2022-10-31T00:55:04;6.05;;;2.40;;
50976;SDS011;36992;48.200;12.418;2022-10-31T00:57:31;7.07;;;2.28;;
50976;SDS011;36992;48.200;12.418;2022-10-31T00:59:58;8.43;;;3.10;;
50976;SDS011;36992;48.200;12.418;2022-10-31T01:02:25;7.95;;;2.33;;
50976;SDS011;36992;48.200;12.418;2022-10-31T01:04:52;4.57;;;2.15;;
50976;SDS011;36992;48.200;12.418;2022-10-31T01:07:18;5.32;;;1.88;;
50976;SDS011;36992;48.200;12.418;2022-10-31T01:09:45;5.80;;;2.58;;
50976;SDS011;36992;48.200;12.418;2022-10-31T01:12:12;11.05;;;3.00;;
50976;SDS011;36992;48.200;12.418;2022-10-31T01:14:41;6.90;;;1.98;;
50976;SDS011;36992;48.200;12.418;2022-10-31T01:17:09;5.90;;;2.03;;
50976;SDS011;36992;48.200;12.418;2022-10-31T01:19:37;4.13;;;1.77;;
50976;SDS011;36992;48.200;12.418;2022-10-31T01:22:03;3.97;;;1.52;;
50976;SDS011;36992;48.200;12.418;2022-10-31T01:24:30;6.60;;;2.10;;
50976;SDS011;36992;48.200;12.418;2022-10-31T01:26:57;6.22;;;2.30;;
50976;SDS011;36992;48.200;12.418;2022-10-31T01:29:23;8.13;;;2.20;;
50976;SDS011;36992;48.200;12.418;2022-10-31T01:31:50;4.53;;;2.00;;
50976;SDS011;36992;48.200;12.418;2022-10-31T01:34:16;6.10;;;2.17;;
50976;SDS011;36992;48.200;12.418;2022-10-31T01:36:45;3.92;;;2.00;;
50976;SDS011;36992;48.200;12.418;2022-10-31T01:39:16;4.82;;;1.95;;
50976;SDS011;36992;48.200;12.418;2022-10-31T01:41:44;4.40;;;1.83;;
50976;SDS011;36992;48.200;12.418;2022-10-31T01:47:19;5.30;;;1.95;;
50976;SDS011;36992;48.200;12.418;2022-10-31T01:49:53;3.70;;;1.75;;
50976;SDS011;36992;48.200;12.418;2022-10-31T01:52:25;5.45;;;2.42;;
50976;SDS011;36992;48.200;12.418;2022-10-31T01:54:57;7.18;;;3.25;;
50976;SDS011;36992;48.200;12.418;2022-10-31T01:57:27;6.43;;;2.05;;
50976;SDS011;36992;48.200;12.418;2022-10-31T02:00:00;5.88;;;3.00;;
50976;SDS011;36992;48.200;12.418;2022-10-31T02:02:30;4.63;;;2.00;;
50976;SDS011;36992;48.200;12.418;2022-10-31T02:04:58;6.38;;;2.60;;
50976;SDS011;36992;48.200;12.418;2022-10-31T02:07:29;4.75;;;1.98;;
50976;SDS011;36992;48.200;12.418;2022-10-31T02:09:59;5.05;;;1.95;;
50976;SDS011;36992;48.200;12.418;2022-10-31T02:12:28;6.60;;;1.85;;
50976;SDS011;36992;48.200;12.418;2022-10-31T02:14:56;7.25;;;1.90;;
50976;SDS011;36992;48.200;12.418;2022-10-31T02:17:23;6.78;;;2.15;;
50976;SDS011;36992;48.200;12.418;2022-10-31T02:19:51;6.43;;;1.70;;
50976;SDS011;36992;48.200;12.418;2022-10-31T02:22:24;4.53;;;1.80;;
50976;SDS011;36992;48.200;12.418;2022-10-31T02:24:58;4.93;;;2.17;;
50976;SDS011;36992;48.200;12.418;2022-10-31T02:30:37;4.18;;;1.92;;
50976;SDS011;36992;48.200;12.418;2022-10-31T02:33:16;4.40;;;1.85;;
50976;SDS011;36992;48.200;12.418;2022-10-31T02:35:52;3.60;;;1.27;;
50976;SDS011;36992;48.200;12.418;2022-10-31T02:38:29;3.45;;;1.58;;
50976;SDS011;36992;48.200;12.418;2022-10-31T02:41:05;5.47;;;1.40;;
50976;SDS011;36992;48.200;12.418;2022-10-31T02:43:42;3.08;;;1.27;;
50976;SDS011;36992;48.200;12.418;2022-10-31T02:46:27;6.82;;;2.03;;
50976;SDS011;36992;48.200;12.418;2022-10-31T02:49:03;5.75;;;1.48;;
50976;SDS011;36992;48.200;12.418;2022-10-31T02:51:33;3.75;;;1.45;;
50976;SDS011;36992;48.200;12.418;2022-10-31T02:54:00;4.60;;;1.23;;
50976;SDS011;36992;48.200;12.418;2022-10-31T02:56:27;3.42;;;1.80;;
50976;SDS011;36992;48.200;12.418;2022-10-31T02:58:54;5.88;;;1.50;;
50976;SDS011;36992;48.200;12.418;2022-10-31T03:07:25;3.92;;;1.48;;
50976;SDS011;36992;48.200;12.418;2022-10-31T03:10:00;4.03;;;1.23;;
50976;SDS011;36992;48.200;12.418;2022-10-31T03:12:37;3.20;;;1.70;;
50976;SDS011;36992;48.200;12.418;2022-10-31T03:15:09;5.38;;;2.80;;
50976;SDS011;36992;48.200;12.418;2022-10-31T03:17:42;3.83;;;1.70;;
50976;SDS011;36992;48.200;12.418;2022-10-31T03:20:16;4.20;;;1.67;;
50976;SDS011;36992;48.200;12.418;2022-10-31T03:22:50;5.13;;;1.42;;
50976;SDS011;36992;48.200;12.418;2022-10-31T03:25:18;4.95;;;1.77;;
50976;SDS011;36992;48.200;12.418;2022-10-31T03:27:45;4.97;;;1.20;;
50976;SDS011;36992;48.200;12.418;2022-10-31T03:30:13;3.80;;;1.65;;
50976;SDS011;36992;48.200;12.418;2022-10-31T03:32:41;4.68;;;1.73;;
50976;SDS011;36992;48.200;12.418;2022-10-31T03:35:10;5.13;;;1.33;;
50976;SDS011;36992;48.200;12.418;2022-10-31T03:37:41;5.22;;;1.60;;
50976;SDS011;36992;48.200;12.418;2022-10-31T03:40:10;3.42;;;1.35;;
50976;SDS011;36992;48.200;12.418;2022-10-31T03:42:40;5.50;;;1.15;;
50976;SDS011;36992;48.200;12.418;2022-10-31T03:45:10;3.75;;;1.20;;
50976;SDS011;36992;48.200;12.418;2022-10-31T03:47:39;3.83;;;1.33;;
50976;SDS011;36992;48.200;12.418;2022-10-31T03:50:09;3.97;;;1.58;;
50976;SDS011;36992;48.200;12.418;2022-10-31T03:52:40;2.80;;;1.48;;
50976;SDS011;36992;48.200;12.418;2022-10-31T03:55:15;3.28;;;1.30;;
50976;SDS011;36992;48.200;12.418;2022-10-31T03:57:45;3.70;;;1.67;;
50976;SDS011;36992;48.200;12.418;2022-10-31T04:00:19;4.22;;;1.65;;
50976;SDS011;36992;48.200;12.418;2022-10-31T04:02:47;3.78;;;1.33;;
50976;SDS011;36992;48.200;12.418;2022-10-31T04:05:19;3.17;;;1.10;;
50976;SDS011;36992;48.200;12.418;2022-10-31T04:07:47;4.22;;;1.20;;
50976;SDS011;36992;48.200;12.418;2022-10-31T04:10:19;5.07;;;1.77;;
50976;SDS011;36992;48.200;12.418;2022-10-31T04:12:48;5.38;;;1.70;;
50976;SDS011;36992;48.200;12.418;2022-10-31T04:15:19;6.65;;;2.20;;
50976;SDS011;36992;48.200;12.418;2022-10-31T04:17:48;5.07;;;1.67;;
50976;SDS011;36992;48.200;12.418;2022-10-31T04:20:18;5.15;;;1.55;;
50976;SDS011;36992;48.200;12.418;2022-10-31T04:22:45;5.05;;;1.50;;
50976;SDS011;36992;48.200;12.418;2022-10-31T04:25:11;3.53;;;1.35;;
50976;SDS011;36992;48.200;12.418;2022-10-31T04:27:39;7.22;;;1.77;;
50976;SDS011;36992;48.200;12.418;2022-10-31T04:30:06;3.63;;;1.55;;
50976;SDS011;36992;48.200;12.418;2022-10-31T04:32:33;4.28;;;1.23;;
50976;SDS011;36992;48.200;12.418;2022-10-31T04:35:00;4.82;;;1.77;;
50976;SDS011;36992;48.200;12.418;2022-10-31T04:37:26;3.20;;;1.20;;
50976;SDS011;36992;48.200;12.418;2022-10-31T04:39:53;4.30;;;1.40;;
50976;SDS011;36992;48.200;12.418;2022-10-31T04:42:20;2.63;;;1.30;;
50976;SDS011;36992;48.200;12.418;2022-10-31T04:44:47;5.95;;;2.10;;
50976;SDS011;36992;48.200;12.418;2022-10-31T04:47:14;3.03;;;1.00;;
50976;SDS011;36992;48.200;12.418;2022-10-31T04:49:41;4.22;;;1.65;;
50976;SDS011;36992;48.200;12.418;2022-10-31T04:52:07;4.93;;;2.33;;
50976;SDS011;36992;48.200;12.418;2022-10-31T04:54:34;9.02;;;4.60;;
50976;SDS011;36992;48.200;12.418;2022-10-31T04:57:00;4.97;;;2.58;;
50976;SDS011;36992;48.200;12.418;2022-10-31T04:59:27;4.53;;;1.80;;
50976;SDS011;36992;48.200;12.418;2022-10-31T05:01:55;4.35;;;1.80;;
50976;SDS011;36992;48.200;12.418;2022-10-31T05:04:21;3.58;;;1.45;;
50976;SDS011;36992;48.200;12.418;2022-10-31T05:06:48;4.80;;;1.52;;
50976;SDS011;36992;48.200;12.418;2022-10-31T05:09:15;4.47;;;1.00;;
50976;SDS011;36992;48.200;12.418;2022-10-31T05:11:42;3.03;;;1.60;;
50976;SDS011;36992;48.200;12.418;2022-10-31T05:14:08;3.25;;;1.35;;
50976;SDS011;36992;48.200;12.418;2022-10-31T05:16:35;2.35;;;1.00;;
50976;SDS011;36992;48.200;12.418;2022-10-31T05:19:02;3.70;;;1.23;;
50976;SDS011;36992;48.200;12.418;2022-10-31T05:21:29;4.88;;;1.30;;
50976;SDS011;36992;48.200;12.418;2022-10-31T05:23:56;2.10;;;0.80;;
50976;SDS011;36992;48.200;12.418;2022-10-31T05:26:22;3.55;;;1.13;;
50976;SDS011;36992;48.200;12.418;2022-10-31T05:28:49;3.22;;;1.10;;
50976;SDS011;36992;48.200;12.418;2022-10-31T05:31:15;2.53;;;1.00;;
50976;SDS011;36992;48.200;12.418;2022-10-31T05:33:42;2.55;;;1.33;;
50976;SDS011;36992;48.200;12.418;2022-10-31T05:36:10;2.88;;;0.82;;
50976;SDS011;36992;48.200;12.418;2022-10-31T05:38:36;2.33;;;0.70;;
50976;SDS011;36992;48.200;12.418;2022-10-31T05:41:03;2.17;;;0.90;;
50976;SDS011;36992;48.200;12.418;2022-10-31T05:43:30;4.75;;;2.45;;
50976;SDS011;36992;48.200;12.418;2022-10-31T05:45:56;8.50;;;2.40;;
50976;SDS011;36992;48.200;12.418;2022-10-31T05:48:23;6.72;;;2.53;;
50976;SDS011;36992;48.200;12.418;2022-10-31T05:50:50;7.55;;;3.22;;
50976;SDS011;36992;48.200;12.418;2022-10-31T05:53:18;7.68;;;2.95;;
50976;SDS011;36992;48.200;12.418;2022-10-31T05:55:45;7.32;;;3.28;;
50976;SDS011;36992;48.200;12.418;2022-10-31T05:58:13;9.32;;;3.15;;
50976;SDS011;36992;48.200;12.418;2022-10-31T06:00:39;5.43;;;2.42;;
50976;SDS011;36992;48.200;12.418;2022-10-31T06:03:07;8.32;;;2.90;;
50976;SDS011;36992;48.200;12.418;2022-10-31T06:05:34;5.60;;;2.17;;
50976;SDS011;36992;48.200;12.418;2022-10-31T06:08:01;10.57;;;3.85;;
50976;SDS011;36992;48.200;12.418;2022-10-31T06:10:29;6.82;;;2.60;;
50976;SDS011;36992;48.200;12.418;2022-10-31T06:12:55;14.23;;;2.38;;
50976;SDS011;36992;48.200;12.418;2022-10-31T06:15:22;7.20;;;3.13;;
50976;SDS011;36992;48.200;12.418;2022-10-31T06:17:56;5.25;;;1.77;;
50976;SDS011;36992;48.200;12.418;2022-10-31T06:20:23;7.63;;;2.10;;
50976;SDS011;36992;48.200;12.418;2022-10-31T06:22:50;5.18;;;2.70;;
50976;SDS011;36992;48.200;12.418;2022-10-31T06:25:16;5.80;;;1.85;;
50976;SDS011;36992;48.200;12.418;2022-10-31T06:27:44;7.15;;;2.63;;
50976;SDS011;36992;48.200;12.418;2022-10-31T06:30:11;6.63;;;2.22;;
50976;SDS011;36992;48.200;12.418;2022-10-31T06:32:38;9.88;;;2.10;;
50976;SDS011;36992;48.200;12.418;2022-10-31T06:35:05;6.93;;;2.55;;
50976;SDS011;36992;48.200;12.418;2022-10-31T06:37:32;7.75;;;2.20;;
50976;SDS011;36992;48.200;12.418;2022-10-31T06:39:59;6.25;;;1.80;;
50976;SDS011;36992;48.200;12.418;2022-10-31T06:42:25;5.22;;;1.75;;
50976;SDS011;36992;48.200;12.418;2022-10-31T06:44:54;8.75;;;2.58;;
50976;SDS011;36992;48.200;12.418;2022-10-31T06:47:20;6.68;;;1.92;;
50976;SDS011;36992;48.200;12.418;2022-10-31T06:49:47;5.22;;;1.95;;
50976;SDS011;36992;48.200;12.418;2022-10-31T06:52:13;6.57;;;2.15;;
50976;SDS011;36992;48.200;12.418;2022-10-31T06:54:40;8.50;;;3.00;;
50976;SDS011;36992;48.200;12.418;2022-10-31T06:57:06;8.98;;;3.78;;
50976;SDS011;36992;48.200;12.418;2022-10-31T06:59:33;9.82;;;4.63;;
50976;SDS011;36992;48.200;12.418;2022-10-31T07:02:01;8.48;;;3.60;;
50976;SDS011;36992;48.200;12.418;2022-10-31T07:04:27;6.68;;;2.83;;
50976;SDS011;36992;48.200;12.418;2022-10-31T07:06:54;9.05;;;3.03;;
50976;SDS011;36992;48.200;12.418;2022-10-31T07:09:20;7.47;;;2.33;;
50976;SDS011;36992;48.200;12.418;2022-10-31T07:11:47;6.35;;;2.13;;
50976;SDS011;36992;48.200;12.418;2022-10-31T07:14:14;5.90;;;1.70;;
50976;SDS011;36992;48.200;12.418;2022-10-31T07:16:40;4.25;;;1.40;;
50976;SDS011;36992;48.200;12.418;2022-10-31T07:19:08;4.35;;;1.20;;
50976;SDS011;36992;48.200;12.418;2022-10-31T07:21:35;4.60;;;1.20;;
50976;SDS011;36992;48.200;12.418;2022-10-31T07:24:01;4.25;;;1.77;;
50976;SDS011;36992;48.200;12.418;2022-10-31T07:26:28;3.60;;;1.23;;
50976;SDS011;36992;48.200;12.418;2022-10-31T07:28:55;2.65;;;0.95;;
50976;SDS011;36992;48.200;12.418;2022-10-31T07:31:21;4.35;;;1.85;;
50976;SDS011;36992;48.200;12.418;2022-10-31T07:33:49;3.08;;;1.30;;
50976;SDS011;36992;48.200;12.418;2022-10-31T07:36:17;3.53;;;1.30;;
50976;SDS011;36992;48.200;12.418;2022-10-31T07:38:44;3.33;;;1.15;;
50976;SDS011;36992;48.200;12.418;2022-10-31T07:41:10;4.47;;;1.05;;
50976;SDS011;36992;48.200;12.418;2022-10-31T07:43:37;2.78;;;0.80;;
50976;SDS011;36992;48.200;12.418;2022-10-31T07:46:03;2.97;;;1.00;;
50976;SDS011;36992;48.200;12.418;2022-10-31T07:48:30;2.42;;;0.93;;
50976;SDS011;36992;48.200;12.418;2022-10-31T07:50:57;4.65;;;1.55;;
50976;SDS011;36992;48.200;12.418;2022-10-31T07:53:25;3.22;;;0.90;;
50976;SDS011;36992;48.200;12.418;2022-10-31T07:55:51;4.75;;;1.50;;
50976;SDS011;36992;48.200;12.418;2022-10-31T07:58:18;5.25;;;1.10;;
50976;SDS011;36992;48.200;12.418;2022-10-31T08:00:45;2.78;;;0.82;;
50976;SDS011;36992;48.200;12.418;2022-10-31T08:03:13;1.90;;;0.80;;
50976;SDS011;36992;48.200;12.418;2022-10-31T08:05:41;3.47;;;0.93;;
50976;SDS011;36992;48.200;12.418;2022-10-31T08:08:10;1.95;;;0.60;;
50976;SDS011;36992;48.200;12.418;2022-10-31T08:10:39;4.45;;;1.00;;
50976;SDS011;36992;48.200;12.418;2022-10-31T08:13:06;4.28;;;1.50;;
50976;SDS011;36992;48.200;12.418;2022-10-31T08:15:34;7.47;;;1.83;;
50976;SDS011;36992;48.200;12.418;2022-10-31T08:18:04;4.57;;;1.02;;
50976;SDS011;36992;48.200;12.418;2022-10-31T08:20:30;3.35;;;0.80;;
50976;SDS011;36992;48.200;12.418;2022-10-31T08:22:57;3.22;;;1.23;;
50976;SDS011;36992;48.200;12.418;2022-10-31T08:25:27;2.72;;;1.08;;
50976;SDS011;36992;48.200;12.418;2022-10-31T08:27:57;8.50;;;1.05;;
50976;SDS011;36992;48.200;12.418;2022-10-31T08:30:24;3.33;;;0.93;;
50976;SDS011;36992;48.200;12.418;2022-10-31T08:32:59;3.08;;;0.90;;
50976;SDS011;36992;48.200;12.418;2022-10-31T08:35:27;2.42;;;0.80;;
50976;SDS011;36992;48.200;12.418;2022-10-31T08:37:53;2.70;;;0.63;;
50976;SDS011;36992;48.200;12.418;2022-10-31T08:40:20;3.25;;;0.63;;
50976;SDS011;36992;48.200;12.418;2022-10-31T08:42:47;5.05;;;0.90;;
50976;SDS011;36992;48.200;12.418;2022-10-31T08:45:15;2.17;;;0.90;;
50976;SDS011;36992;48.200;12.418;2022-10-31T08:47:42;2.72;;;1.00;;
50976;SDS011;36992;48.200;12.418;2022-10-31T08:50:08;2.47;;;0.90;;
50976;SDS011;36992;48.200;12.418;2022-10-31T08:52:35;4.18;;;0.52;;
50976;SDS011;36992;48.200;12.418;2022-10-31T08:55:02;2.38;;;0.70;;
50976;SDS011;36992;48.200;12.418;2022-10-31T08:57:28;2.95;;;1.10;;
50976;SDS011;36992;48.200;12.418;2022-10-31T08:59:55;2.92;;;0.95;;
50976;SDS011;36992;48.200;12.418;2022-10-31T09:02:23;3.15;;;0.70;;
50976;SDS011;36992;48.200;12.418;2022-10-31T09:04:49;3.15;;;0.98;;
50976;SDS011;36992;48.200;12.418;2022-10-31T09:07:16;2.17;;;0.80;;
50976;SDS011;36992;48.200;12.418;2022-10-31T09:09:43;3.78;;;0.85;;
50976;SDS011;36992;48.200;12.418;2022-10-31T09:12:09;2.13;;;0.80;;
50976;SDS011;36992;48.200;12.418;2022-10-31T09:14:36;3.03;;;0.68;;
50976;SDS011;36992;48.200;12.418;2022-10-31T09:17:02;3.75;;;0.93;;
50976;SDS011;36992;48.200;12.418;2022-10-31T09:19:30;3.70;;;1.38;;
50976;SDS011;36992;48.200;12.418;2022-10-31T09:21:57;3.08;;;1.50;;
50976;SDS011;36992;48.200;12.418;2022-10-31T09:24:23;4.95;;;1.08;;
50976;SDS011;36992;48.200;12.418;2022-10-31T09:26:50;4.88;;;1.20;;
50976;SDS011;36992;48.200;12.418;2022-10-31T09:29:17;4.45;;;1.10;;
50976;SDS011;36992;48.200;12.418;2022-10-31T09:31:43;4.30;;;1.10;;
50976;SDS011;36992;48.200;12.418;2022-10-31T09:34:10;4.53;;;1.90;;
50976;SDS011;36992;48.200;12.418;2022-10-31T09:36:38;6.43;;;1.27;;
50976;SDS011;36992;48.200;12.418;2022-10-31T09:39:04;4.28;;;1.35;;
50976;SDS011;36992;48.200;12.418;2022-10-31T09:41:34;3.92;;;1.40;;
50976;SDS011;36992;48.200;12.418;2022-10-31T09:44:17;7.82;;;1.48;;
50976;SDS011;36992;48.200;12.418;2022-10-31T09:46:52;5.70;;;1.73;;
50976;SDS011;36992;48.200;12.418;2022-10-31T09:49:34;6.03;;;1.55;;
50976;SDS011;36992;48.200;12.418;2022-10-31T09:52:10;7.22;;;2.08;;
50976;SDS011;36992;48.200;12.418;2022-10-31T09:57:12;4.75;;;1.50;;
50976;SDS011;36992;48.200;12.418;2022-10-31T09:59:41;8.75;;;2.28;;
50976;SDS011;36992;48.200;12.418;2022-10-31T10:02:13;3.53;;;1.25;;
50976;SDS011;36992;48.200;12.418;2022-10-31T10:04:44;4.25;;;1.00;;
50976;SDS011;36992;48.200;12.418;2022-10-31T10:07:19;5.57;;;2.20;;
50976;SDS011;36992;48.200;12.418;2022-10-31T10:09:51;5.38;;;1.75;;
50976;SDS011;36992;48.200;12.418;2022-10-31T10:12:19;9.35;;;1.83;;
50976;SDS011;36992;48.200;12.418;2022-10-31T10:15:03;7.10;;;1.58;;
50976;SDS011;36992;48.200;12.418;2022-10-31T10:17:48;6.57;;;1.85;;
50976;SDS011;36992;48.200;12.418;2022-10-31T10:20:27;5.70;;;2.17;;
50976;SDS011;36992;48.200;12.418;2022-10-31T10:23:07;6.47;;;2.92;;
50976;SDS011;36992;48.200;12.418;2022-10-31T10:25:44;6.60;;;2.00;;
50976;SDS011;36992;48.200;12.418;2022-10-31T10:28:17;7.47;;;1.77;;
50976;SDS011;36992;48.200;12.418;2022-10-31T10:30:48;6.85;;;2.25;;
50976;SDS011;36992;48.200;12.418;2022-10-31T10:33:19;6.07;;;1.63;;
50976;SDS011;36992;48.200;12.418;2022-10-31T10:35:49;5.88;;;2.03;;
50976;SDS011;36992;48.200;12.418;2022-10-31T10:38:23;6.97;;;2.47;;
50976;SDS011;36992;48.200;12.418;2022-10-31T10:40:53;7.72;;;3.17;;
50976;SDS011;36992;48.200;12.418;2022-10-31T10:43:22;11.13;;;3.53;;
50976;SDS011;36992;48.200;12.418;2022-10-31T10:46:00;6.38;;;2.55;;
50976;SDS011;36992;48.200;12.418;2022-10-31T10:48:58;10.55;;;2.03;;
50976;SDS011;36992;48.200;12.418;2022-10-31T10:51:31;7.32;;;2.47;;
50976;SDS011;36992;48.200;12.418;2022-10-31T10:54:16;5.47;;;2.08;;
50976;SDS011;36992;48.200;12.418;2022-10-31T10:57:06;7.78;;;2.63;;
50976;SDS011;36992;48.200;12.418;2022-10-31T10:59:43;5.32;;;2.08;;
50976;SDS011;36992;48.200;12.418;2022-10-31T11:02:15;6.45;;;2.38;;
50976;SDS011;36992;48.200;12.418;2022-10-31T11:04:43;3.72;;;1.70;;
50976;SDS011;36992;48.200;12.418;2022-10-31T11:07:13;5.80;;;2.30;;
50976;SDS011;36992;48.200;12.418;2022-10-31T11:09:41;5.18;;;2.22;;
50976;SDS011;36992;48.200;12.418;2022-10-31T11:12:09;6.93;;;2.20;;
50976;SDS011;36992;48.200;12.418;2022-10-31T11:14:42;4.03;;;1.92;;
50976;SDS011;36992;48.200;12.418;2022-10-31T11:17:17;6.88;;;2.13;;
50976;SDS011;36992;48.200;12.418;2022-10-31T11:19:48;7.65;;;1.88;;
50976;SDS011;36992;48.200;12.418;2022-10-31T11:22:26;6.28;;;2.03;;
50976;SDS011;36992;48.200;12.418;2022-10-31T11:24:54;8.02;;;3.22;;
50976;SDS011;36992;48.200;12.418;2022-10-31T11:27:21;7.32;;;2.25;;
50976;SDS011;36992;48.200;12.418;2022-10-31T11:29:49;6.47;;;2.72;;
50976;SDS011;36992;48.200;12.418;2022-10-31T11:32:19;5.85;;;1.45;;
50976;SDS011;36992;48.200;12.418;2022-10-31T11:34:47;3.67;;;1.27;;
50976;SDS011;36992;48.200;12.418;2022-10-31T11:37:16;4.05;;;1.77;;
50976;SDS011;36992;48.200;12.418;2022-10-31T11:39:48;7.63;;;2.55;;
50976;SDS011;36992;48.200;12.418;2022-10-31T11:42:20;5.93;;;1.60;;
50976;SDS011;36992;48.200;12.418;2022-10-31T11:44:49;4.80;;;1.52;;
50976;SDS011;36992;48.200;12.418;2022-10-31T11:47:17;4.50;;;1.50;;
50976;SDS011;36992;48.200;12.418;2022-10-31T11:49:51;4.55;;;1.90;;
50976;SDS011;36992;48.200;12.418;2022-10-31T11:52:19;4.45;;;1.60;;
50976;SDS011;36992;48.200;12.418;2022-10-31T11:54:49;4.13;;;1.45;;
50976;SDS011;36992;48.200;12.418;2022-10-31T11:59:55;3.30;;;1.08;;
50976;SDS011;36992;48.200;12.418;2022-10-31T12:02:22;8.68;;;1.75;;
50976;SDS011;36992;48.200;12.418;2022-10-31T12:04:51;4.18;;;0.98;;
50976;SDS011;36992;48.200;12.418;2022-10-31T12:07:24;4.32;;;1.60;;
50976;SDS011;36992;48.200;12.418;2022-10-31T12:09:51;3.88;;;1.70;;
50976;SDS011;36992;48.200;12.418;2022-10-31T12:12:37;9.10;;;2.38;;
50976;SDS011;36992;48.200;12.418;2022-10-31T12:20:33;4.65;;;1.00;;
50976;SDS011;36992;48.200;12.418;2022-10-31T12:23:13;3.58;;;1.10;;
50976;SDS011;36992;48.200;12.418;2022-10-31T12:25:46;6.57;;;1.80;;
50976;SDS011;36992;48.200;12.418;2022-10-31T12:28:29;4.80;;;1.10;;
50976;SDS011;36992;48.200;12.418;2022-10-31T12:31:15;4.80;;;1.20;;
50976;SDS011;36992;48.200;12.418;2022-10-31T12:33:53;3.78;;;1.20;;
50976;SDS011;36992;48.200;12.418;2022-10-31T12:36:38;3.63;;;0.88;;
50976;SDS011;36992;48.200;12.418;2022-10-31T12:39:15;5.97;;;1.10;;
50976;SDS011;36992;48.200;12.418;2022-10-31T12:41:51;6.07;;;1.38;;
50976;SDS011;36992;48.200;12.418;2022-10-31T12:47:24;3.28;;;1.60;;
50976;SDS011;36992;48.200;12.418;2022-10-31T12:50:05;4.75;;;1.15;;
50976;SDS011;36992;48.200;12.418;2022-10-31T12:52:46;3.78;;;1.38;;
50976;SDS011;36992;48.200;12.418;2022-10-31T12:58:13;2.80;;;1.05;;
50976;SDS011;36992;48.200;12.418;2022-10-31T13:00:46;3.88;;;1.10;;
50976;SDS011;36992;48.200;12.418;2022-10-31T13:03:27;5.78;;;1.60;;
50976;SDS011;36992;48.200;12.418;2022-10-31T13:06:02;7.60;;;1.20;;
50976;SDS011;36992;48.200;12.418;2022-10-31T13:08:34;3.97;;;1.45;;
50976;SDS011;36992;48.200;12.418;2022-10-31T13:11:08;3.10;;;1.00;;
50976;SDS011;36992;48.200;12.418;2022-10-31T13:13:38;5.72;;;2.58;;
50976;SDS011;36992;48.200;12.418;2022-10-31T13:16:11;5.18;;;1.85;;
50976;SDS011;36992;48.200;12.418;2022-10-31T13:18:43;4.72;;;1.10;;
50976;SDS011;36992;48.200;12.418;2022-10-31T13:21:16;3.17;;;1.15;;
50976;SDS011;36992;48.200;12.418;2022-10-31T13:23:48;4.00;;;1.40;;
50976;SDS011;36992;48.200;12.418;2022-10-31T13:26:18;2.60;;;1.05;;
50976;SDS011;36992;48.200;12.418;2022-10-31T13:28:51;4.50;;;1.13;;
50976;SDS011;36992;48.200;12.418;2022-10-31T13:31:25;7.65;;;1.15;;
50976;SDS011;36992;48.200;12.418;2022-10-31T13:33:53;4.30;;;1.20;;
50976;SDS011;36992;48.200;12.418;2022-10-31T13:36:24;4.35;;;1.60;;
50976;SDS011;36992;48.200;12.418;2022-10-31T13:38:59;2.60;;;1.42;;
50976;SDS011;36992;48.200;12.418;2022-10-31T13:41:40;6.40;;;1.45;;
50976;SDS011;36992;48.200;12.418;2022-10-31T13:44:13;12.35;;;1.77;;
50976;SDS011;36992;48.200;12.418;2022-10-31T13:46:45;4.75;;;1.40;;
50976;SDS011;36992;48.200;12.418;2022-10-31T13:49:23;5.40;;;1.38;;
50976;SDS011;36992;48.200;12.418;2022-10-31T13:51:52;7.22;;;1.60;;
50976;SDS011;36992;48.200;12.418;2022-10-31T13:54:20;6.78;;;1.40;;
50976;SDS011;36992;48.200;12.418;2022-10-31T13:56:48;7.97;;;1.65;;
50976;SDS011;36992;48.200;12.418;2022-10-31T13:59:17;4.15;;;1.50;;
50976;SDS011;36992;48.200;12.418;2022-10-31T14:01:49;2.90;;;1.17;;
50976;SDS011;36992;48.200;12.418;2022-10-31T14:04:18;6.25;;;1.48;;
50976;SDS011;36992;48.200;12.418;2022-10-31T14:07:05;3.67;;;1.40;;
50976;SDS011;36992;48.200;12.418;2022-10-31T14:09:34;5.00;;;1.10;;
50976;SDS011;36992;48.200;12.418;2022-10-31T14:12:04;3.92;;;1.23;;
50976;SDS011;36992;48.200;12.418;2022-10-31T14:14:35;3.95;;;1.60;;
50976;SDS011;36992;48.200;12.418;2022-10-31T14:17:16;6.07;;;1.77;;
50976;SDS011;36992;48.200;12.418;2022-10-31T14:19:59;5.45;;;1.73;;
50976;SDS011;36992;48.200;12.418;2022-10-31T14:22:29;6.45;;;1.42;;
50976;SDS011;36992;48.200;12.418;2022-10-31T14:24:57;5.32;;;1.50;;
50976;SDS011;36992;48.200;12.418;2022-10-31T14:27:32;5.38;;;0.88;;
50976;SDS011;36992;48.200;12.418;2022-10-31T14:30:12;5.18;;;1.40;;
50976;SDS011;36992;48.200;12.418;2022-10-31T14:32:45;5.97;;;2.15;;
50976;SDS011;36992;48.200;12.418;2022-10-31T14:35:17;4.43;;;1.60;;
50976;SDS011;36992;48.200;12.418;2022-10-31T14:37:50;5.53;;;1.52;;
50976;SDS011;36992;48.200;12.418;2022-10-31T14:40:30;3.35;;;1.05;;
50976;SDS011;36992;48.200;12.418;2022-10-31T14:43:22;3.42;;;1.05;;
50976;SDS011;36992;48.200;12.418;2022-10-31T14:45:59;4.57;;;1.13;;
50976;SDS011;36992;48.200;12.418;2022-10-31T14:48:39;7.43;;;1.20;;
50976;SDS011;36992;48.200;12.418;2022-10-31T14:51:19;5.15;;;1.08;;
50976;SDS011;36992;48.200;12.418;2022-10-31T14:53:48;5.40;;;1.60;;
50976;SDS011;36992;48.200;12.418;2022-10-31T14:56:18;3.40;;;1.30;;
50976;SDS011;36992;48.200;12.418;2022-10-31T14:58:49;5.03;;;1.75;;
50976;SDS011;36992;48.200;12.418;2022-10-31T15:01:18;3.42;;;1.10;;
50976;SDS011;36992;48.200;12.418;2022-10-31T15:03:50;8.38;;;2.35;;
50976;SDS011;36992;48.200;12.418;2022-10-31T15:06:18;3.25;;;1.58;;
50976;SDS011;36992;48.200;12.418;2022-10-31T15:08:47;4.03;;;1.27;;
50976;SDS011;36992;48.200;12.418;2022-10-31T15:11:16;6.95;;;1.92;;
50976;SDS011;36992;48.200;12.418;2022-10-31T15:13:45;5.45;;;1.73;;
50976;SDS011;36992;48.200;12.418;2022-10-31T15:16:13;5.85;;;2.17;;
50976;SDS011;36992;48.200;12.418;2022-10-31T15:18:51;7.38;;;2.00;;